Time;durP1;ratioP1;P1;durP2;ratioP2;P2;SDS_P1;SDS_P2;PMS_P1;PMS_P2;Temp;Humidity;BMP_temperature;BMP_pressure;BME280_temperature;BME280_humidity;BME280_pressure;Samples;Min_cycle;Max_cycle;Signal;HPM_P1;HPM_P2
2022/06/26 00:01:05;;;;;;;12.57;7.60;;;;;;;18.58;73.28;100698.00;5030284;28;20036;-83
2022/06/26 00:03:31;;;;;;;15.35;7.60;;;;;;;18.58;73.52;100686.28;5046146;28;20037;-82
2022/06/26 00:05:56;;;;;;;;;;;;;;;18.56;73.87;100702.81;5051806;28;20047;-81
2022/06/26 00:08:25;;;;;;;11.70;7.88;;;;;;;18.44;74.82;100701.78;5050262;28;19912;-82
2022/06/26 00:10:52;;;;;;;11.48;8.35;;;;;;;18.38;74.76;100697.19;5071510;28;20036;-82
2022/06/26 00:13:17;;;;;;;16.13;8.85;;;;;;;18.24;75.28;100688.19;5037459;28;20086;-82
2022/06/26 00:15:45;;;;;;;;;;;;;;;18.48;74.68;100703.88;5019134;28;20066;-82
2022/06/26 00:18:11;;;;;;;13.13;8.65;;;;;;;18.38;74.79;100705.34;5071759;28;19928;-81
2022/06/26 00:20:37;;;;;;;17.38;9.32;;;;;;;18.29;75.20;100702.88;5033061;28;20040;-83
2022/06/26 00:23:03;;;;;;;;;;;;;;;18.25;75.14;100708.94;5053990;28;20040;-83
2022/06/26 00:25:29;;;;;;;15.30;10.02;;;;;;;18.12;75.71;100701.59;5050403;28;20360;-83
2022/06/26 00:27:55;;;;;;;;;;;;;;;18.26;75.24;100711.47;5053041;28;20058;-83
2022/06/26 00:30:22;;;;;;;16.73;8.68;;;;;;;18.24;75.33;100719.00;5036102;28;20364;-83
2022/06/26 00:32:51;;;;;;;16.15;8.75;;;;;;;18.29;74.71;100718.38;5024853;28;20552;-83
2022/06/26 00:35:17;;;;;;;13.00;8.43;;;;;;;18.35;74.33;100721.09;5029116;28;20033;-81
2022/06/26 00:37:46;;;;;;;13.55;8.90;;;;;;;18.37;74.28;100711.84;5074493;28;20064;-82
2022/06/26 00:40:12;;;;;;;10.90;7.88;;;;;;;18.36;74.07;100700.13;5053540;28;20044;-82
2022/06/26 00:42:37;;;;;;;;;;;;;;;18.34;72.91;100707.69;5054219;28;20043;-82
2022/06/26 00:45:05;;;;;;;9.77;6.25;;;;;;;18.17;71.79;100690.94;5074747;28;19938;-83
2022/06/26 00:47:34;;;;;;;9.15;5.78;;;;;;;18.26;70.68;100711.47;5054215;28;20086;-84
2022/06/26 00:49:59;;;;;;;9.02;5.00;;;;;;;18.19;69.39;100699.75;5066958;28;20090;-82
2022/06/26 00:52:27;;;;;;;;;;;;;;;18.25;67.46;100706.22;5052341;28;20442;-82
2022/06/26 00:54:53;;;;;;;10.05;7.97;;;;;;;18.18;67.13;100692.59;5052046;28;19912;-82
2022/06/26 00:57:21;;;;;;;12.18;9.52;;;;;;;18.12;66.50;100682.56;5033897;28;20095;-83
2022/06/26 00:59:50;;;;;;;9.05;5.05;;;;;;;18.21;66.35;100699.50;5029759;28;20036;-83
2022/06/26 01:02:18;;;;;;;5.90;4.75;;;;;;;18.19;66.11;100694.31;5036155;28;20043;-83
2022/06/26 01:04:44;;;;;;;6.05;4.53;;;;;;;18.16;66.38;100691.97;5029167;28;20469;-83
2022/06/26 01:07:11;;;;;;;;;;;;;;;18.11;67.40;100698.06;5052885;28;20044;-83
2022/06/26 01:09:38;;;;;;;5.20;4.43;;;;;;;18.11;67.92;100702.66;5033303;28;19912;-84
2022/06/26 01:12:04;;;;;;;8.25;5.20;;;;;;;17.98;68.77;100702.66;5069403;28;20032;-82
2022/06/26 01:14:31;;;;;;;9.43;5.85;;;;;;;17.96;69.00;100693.84;5035454;28;20017;-83
2022/06/26 01:16:56;;;;;;;;;;;;;;;18.09;69.73;100702.03;5032388;28;20147;-84
2022/06/26 01:19:22;;;;;;;10.07;6.50;;;;;;;17.98;70.85;100697.22;5049628;28;19912;-84
2022/06/26 01:21:47;;;;;;;;;;;;;;;18.03;71.57;100713.75;5049654;28;20040;-83
2022/06/26 01:24:14;;;;;;;;;;;;;;;18.01;71.54;100704.97;5044934;28;19912;-82
2022/06/26 01:26:41;;;;;;;13.18;9.07;;;;;;;17.83;72.63;100689.25;5064443;28;19960;-84
2022/06/26 01:29:07;;;;;;;15.65;9.95;;;;;;;17.80;73.63;100698.63;5066869;28;20519;-84
2022/06/26 01:31:36;;;;;;;;;;;;;;;17.70;74.15;100706.38;5036113;28;20036;-83
2022/06/26 01:34:08;;;;;;;14.63;11.25;;;;;;;17.70;74.07;100701.78;5067215;28;19908;-83
2022/06/26 01:36:36;;;;;;;19.92;11.45;;;;;;;17.78;73.99;100713.50;5068349;28;20029;-83
2022/06/26 01:39:03;;;;;;;21.77;12.85;;;;;;;17.55;75.19;100689.41;5030963;28;20396;-83
2022/06/26 01:41:29;;;;;;;17.67;12.65;;;;;;;17.66;75.05;100705.94;5049360;28;20029;-84
2022/06/26 01:43:57;;;;;;;17.20;13.25;;;;;;;17.50;75.50;100695.44;5049799;28;20032;-82
2022/06/26 01:46:24;;;;;;;18.92;13.48;;;;;;;17.46;75.61;100700.44;5039666;28;20581;-83
2022/06/26 01:48:49;;;;;;;18.98;13.35;;;;;;;17.59;75.05;100704.25;5047331;28;20032;-84
2022/06/26 01:51:20;;;;;;;;;;;;;;;17.68;74.80;100703.03;5068818;28;20044;-83
2022/06/26 01:53:47;;;;;;;18.38;12.40;;;;;;;17.57;75.15;100706.34;5069395;28;19912;-84
2022/06/26 01:56:18;;;;;;;16.85;12.43;;;;;;;17.55;75.05;100705.72;5051109;28;20094;-84
2022/06/26 01:58:44;;;;;;;16.83;12.35;;;;;;;17.42;75.11;100704.63;5035430;28;20036;-84
2022/06/26 02:01:14;;;;;;;15.35;11.30;;;;;;;17.42;75.03;100704.63;5066677;28;20468;-85
2022/06/26 02:03:40;;;;;;;14.05;10.10;;;;;;;17.43;74.37;100705.47;5032442;28;20094;-82
2022/06/26 02:06:05;;;;;;;;;;;;;;;17.54;73.30;100706.75;5045684;28;20041;-84
2022/06/26 02:08:38;;;;;;;;;;;;;;;17.57;72.73;100703.63;5032483;28;19970;-83
2022/06/26 02:13:52;;;;;;;10.98;8.07;;;;;;;17.39;71.81;100701.47;5070754;28;20051;-82
2022/06/26 02:16:21;;;;;;;11.52;7.57;;;;;;;17.38;71.65;100708.81;5053358;28;20032;-82
2022/06/26 02:18:51;;;;;;;9.40;7.72;;;;;;;17.36;71.33;100697.28;5038327;28;20043;-81
2022/06/26 02:21:21;;;;;;;12.40;8.10;;;;;;;17.34;71.27;100695.81;5053941;28;20129;-83
2022/06/26 02:23:50;;;;;;;11.10;8.45;;;;;;;17.50;71.18;100711.75;5054699;28;20507;-82
2022/06/26 02:26:17;;;;;;;15.32;8.77;;;;;;;17.57;71.06;100722.66;5049057;28;20043;-84
2022/06/26 02:28:43;;;;;;;12.75;8.43;;;;;;;17.53;71.35;100716.78;5058174;28;20122;-83
2022/06/26 02:31:09;;;;;;;;;;;;;;;17.58;71.69;100718.88;5030752;28;20100;-83
2022/06/26 02:33:35;;;;;;;15.82;9.50;;;;;;;17.52;71.84;100709.69;5088155;28;19983;-81
2022/06/26 02:36:02;;;;;;;13.98;10.70;;;;;;;17.54;72.46;100717.63;5048740;28;20105;-82
2022/06/26 02:38:29;;;;;;;15.60;10.80;;;;;;;17.45;72.46;100708.81;5052362;28;20049;-82
2022/06/26 02:41:04;;;;;;;17.27;11.45;;;;;;;17.43;72.97;100717.16;5073530;28;20045;-84
2022/06/26 02:43:29;;;;;;;17.50;11.57;;;;;;;17.52;73.44;100724.09;5051047;28;20036;-83
2022/06/26 02:45:57;;;;;;;;;;;;;;;17.51;73.69;100735.16;5076322;28;20563;-83
2022/06/26 02:48:25;;;;;;;15.23;11.35;;;;;;;17.32;73.94;100712.31;5044794;28;20257;-82
2022/06/26 02:50:54;;;;;;;19.83;12.55;;;;;;;17.31;74.76;100729.69;5026343;28;20033;-82
2022/06/26 02:53:20;;;;;;;18.73;12.45;;;;;;;17.23;74.71;100713.53;5016442;28;20053;-82
2022/06/26 02:55:56;;;;;;;14.93;12.40;;;;;;;17.40;73.80;100731.19;5049025;28;20037;-84
2022/06/26 02:58:24;;;;;;;17.58;11.65;;;;;;;17.59;73.52;100735.00;5044738;28;20041;-83
2022/06/26 03:00:51;;;;;;;16.00;11.77;;;;;;;17.66;73.02;100737.72;5051555;28;20033;-82
2022/06/26 03:03:18;;;;;;;21.05;11.75;;;;;;;17.61;73.30;100745.66;5049941;28;20041;-83
2022/06/26 03:05:46;;;;;;;18.48;12.38;;;;;;;17.63;73.15;100735.41;5071388;28;20128;-81
2022/06/26 03:08:18;;;;;;;19.25;12.40;;;;;;;17.62;72.86;100737.28;5071766;28;20037;-85
2022/06/26 03:10:43;;;;;;;20.23;12.27;;;;;;;17.70;72.71;100736.28;5053686;28;20087;-83
2022/06/26 03:13:09;;;;;;;;;;;;;;;17.88;72.61;100741.97;5053904;28;20045;-83
2022/06/26 03:15:36;;;;;;;14.88;12.00;;;;;;;17.90;72.08;100749.94;5049654;28;19917;-83
2022/06/26 03:18:02;;;;;;;19.83;11.57;;;;;;;18.07;71.91;100750.38;5050456;28;20074;-82
2022/06/26 03:20:31;;;;;;;14.75;11.50;;;;;;;18.13;71.49;100749.53;5051667;28;20044;-84
2022/06/26 03:22:57;;;;;;;19.27;11.32;;;;;;;18.10;71.57;100752.69;5052630;28;20039;-83
2022/06/26 03:25:25;;;;;;;18.38;11.52;;;;;;;18.14;71.19;100726.72;5047944;28;20074;-82
2022/06/26 03:27:52;;;;;;;17.10;10.70;;;;;;;18.28;70.43;100736.56;5026293;28;20088;-83
2022/06/26 03:30:17;;;;;;;20.08;11.10;;;;;;;18.38;69.97;100738.88;5044812;28;20342;-83
2022/06/26 03:32:43;;;;;;;;;;;;;;;18.49;69.91;100749.09;5046223;28;20045;-84
2022/06/26 03:35:10;;;;;;;;;;;;;;;18.54;69.64;100753.91;5051944;28;19909;-82
2022/06/26 03:37:37;;;;;;;14.35;9.57;;;;;;;18.54;69.30;100753.91;5040146;28;19940;-86
2022/06/26 03:40:04;;;;;;;16.38;9.85;;;;;;;18.64;68.80;100751.63;5040713;28;20481;-84
2022/06/26 03:42:29;;;;;;;14.18;9.90;;;;;;;18.66;68.57;100744.06;5030690;28;20098;-84
2022/06/26 03:44:55;;;;;;;;;;;;;;;18.81;68.21;100754.75;5030345;28;20053;-83
2022/06/26 03:47:21;;;;;;;18.45;9.52;;;;;;;18.88;68.24;100755.56;5062297;28;19996;-82
2022/06/26 03:49:52;;;;;;;;;;;;;;;19.01;67.14;100753.84;5037788;28;20064;-84
2022/06/26 03:52:20;;;;;;;13.57;9.15;;;;;;;19.10;66.39;100755.28;5050766;28;20023;-84
2022/06/26 03:54:45;;;;;;;16.42;8.98;;;;;;;19.12;66.13;100745.84;5048399;28;20059;-83
2022/06/26 03:57:11;;;;;;;;;;;;;;;19.27;65.62;100761.09;5031015;28;20424;-83
2022/06/26 03:59:37;;;;;;;16.05;8.57;;;;;;;19.25;65.60;100747.69;5020396;28;20074;-85
2022/06/26 04:02:04;;;;;;;17.33;8.38;;;;;;;19.56;64.37;100743.34;5044285;28;20129;-83
2022/06/26 04:04:35;;;;;;;14.13;8.07;;;;;;;20.54;60.85;100752.94;5050373;28;20449;-84
2022/06/26 04:07:04;;;;;;;14.40;8.00;;;;;;;21.42;57.63;100751.81;5049733;28;20099;-83
2022/06/26 04:09:30;;;;;;;12.30;8.70;;;;;;;22.26;55.06;100740.91;5050696;28;20036;-85
2022/06/26 04:11:56;;;;;;;14.77;9.85;;;;;;;22.83;53.29;100762.22;5046819;28;20497;-84
2022/06/26 04:14:23;;;;;;;13.05;11.35;;;;;;;23.64;50.80;100751.31;5016320;28;20037;-83
2022/06/26 04:16:49;;;;;;;16.10;11.38;;;;;;;24.11;49.45;100751.91;5048707;28;20049;-83
2022/06/26 04:19:15;;;;;;;16.42;11.35;;;;;;;24.56;47.15;100759.28;5022337;28;20076;-85
2022/06/26 04:21:43;;;;;;;18.15;10.45;;;;;;;25.13;45.74;100751.81;5045267;28;20036;-83
2022/06/26 04:24:12;;;;;;;11.00;8.68;;;;;;;25.58;43.71;100765.31;5047433;28;20489;-86
2022/06/26 04:26:39;;;;;;;9.65;6.43;;;;;;;26.36;41.58;100753.13;5049590;28;20043;-85
2022/06/26 04:29:08;;;;;;;9.13;6.20;;;;;;;27.04;40.15;100759.69;5020650;28;20064;-84
2022/06/26 04:31:36;;;;;;;9.38;6.68;;;;;;;27.94;38.45;100755.84;5051276;28;20476;-82
2022/06/26 04:34:02;;;;;;;8.63;6.40;;;;;;;29.73;35.25;100752.69;5052584;28;20051;-84
2022/06/26 04:36:27;;;;;;;12.73;6.63;;;;;;;30.85;33.28;100756.47;5049607;28;20124;-84
2022/06/26 04:38:54;;;;;;;8.65;6.13;;;;;;;31.61;31.61;100751.09;5028501;28;20068;-84
2022/06/26 04:41:31;;;;;;;9.98;5.65;;;;;;;31.51;31.35;100757.59;5044338;28;20040;-84
2022/06/26 04:44:06;;;;;;;8.80;5.13;;;;;;;29.78;34.38;100743.50;5063130;28;20044;-87
2022/06/26 04:46:37;;;;;;;8.30;6.00;;;;;;;28.89;36.23;100769.06;5059973;28;20025;-87
2022/06/26 04:49:08;;;;;;;14.63;6.88;;;;;;;28.40;36.52;100744.78;5037956;28;20044;-86
2022/06/26 04:51:51;;;;;;;10.98;7.65;;;;;;;27.73;38.56;100749.44;5042759;28;20521;-89
2022/06/26 04:54:16;;;;;;;20.73;8.13;;;;;;;27.37;39.50;100746.59;5040724;28;20061;-88
2022/06/26 04:56:47;;;;;;;12.88;7.35;;;;;;;27.21;40.32;100769.72;5038314;28;20029;-88
2022/06/26 04:59:17;;;;;;;11.88;8.00;;;;;;;26.68;40.68;100740.16;5048682;28;20041;-87
2022/06/26 05:01:44;;;;;;;17.05;7.72;;;;;;;26.78;41.50;100766.13;5013838;28;20041;-87
2022/06/26 05:04:09;;;;;;;12.93;8.00;;;;;;;26.64;41.51;100771.28;5018573;28;20040;-84
2022/06/26 05:06:55;;;;;;;15.50;8.00;;;;;;;26.17;42.83;100767.31;5042784;28;20420;-87
2022/06/26 05:09:25;;;;;;;12.13;7.97;;;;;;;26.13;42.86;100754.31;5028692;28;20037;-91
2022/06/26 05:11:52;;;;;;;13.40;8.02;;;;;;;26.06;43.09;100771.09;5046432;28;20048;-88
2022/06/26 05:14:19;;;;;;;14.70;8.02;;;;;;;25.78;43.74;100769.38;5026928;28;20037;-88
2022/06/26 05:16:47;;;;;;;17.42;8.40;;;;;;;25.45;45.04;100757.47;5017053;28;20127;-87
2022/06/26 05:19:18;;;;;;;18.60;8.45;;;;;;;25.42;45.04;100750.56;5031149;28;20044;-89
2022/06/26 05:21:47;;;;;;;13.50;7.85;;;;;;;25.36;45.49;100759.03;5047209;28;20469;-87
2022/06/26 05:24:15;;;;;;;13.35;7.55;;;;;;;25.43;45.05;100767.91;5044571;28;20037;-88
2022/06/26 05:26:43;;;;;;;14.75;7.28;;;;;;;25.46;44.29;100762.72;5000214;28;20036;-87
2022/06/26 05:29:08;;;;;;;13.40;7.47;;;;;;;25.36;44.75;100765.34;5015683;28;20120;-88
2022/06/26 05:31:37;;;;;;;10.75;7.50;;;;;;;25.30;44.71;100766.38;5028889;28;20393;-87
2022/06/26 05:34:04;;;;;;;15.93;7.10;;;;;;;25.20;43.69;100783.59;5035401;28;20068;-89
2022/06/26 05:36:33;;;;;;;14.52;7.03;;;;;;;25.32;44.08;100805.47;5015926;28;20041;-87
2022/06/26 05:38:58;;;;;;;10.88;6.55;;;;;;;25.22;43.38;100775.91;5039839;28;20032;-88
2022/06/26 05:41:25;;;;;;;8.15;6.32;;;;;;;25.42;43.02;100778.06;5039858;28;20067;-90
2022/06/26 05:43:52;;;;;;;10.75;6.75;;;;;;;25.39;42.75;100781.34;5033617;28;20025;-87
2022/06/26 05:46:19;;;;;;;9.10;6.63;;;;;;;25.29;43.23;100759.22;5039388;28;20072;-90
2022/06/26 05:48:47;;;;;;;9.00;6.90;;;;;;;25.22;43.75;100772.34;5012596;28;20100;-88
2022/06/26 05:51:20;;;;;;;13.75;7.03;;;;;;;25.58;44.50;100794.78;5008170;28;20094;-87
2022/06/26 05:53:53;;;;;;;14.07;7.53;;;;;;;25.98;44.94;100790.81;5033253;28;20055;-88
2022/06/26 05:56:33;;;;;;;12.80;8.13;;;;;;;26.20;44.61;100782.47;5020176;28;20037;-87
2022/06/26 05:58:59;;;;;;;11.60;6.78;;;;;;;26.51;44.31;100789.09;5011074;28;20404;-87
2022/06/26 06:01:25;;;;;;;10.70;7.10;;;;;;;26.89;43.86;100793.50;5012337;28;20040;-89
2022/06/26 06:03:53;;;;;;;16.15;6.78;;;;;;;27.05;43.01;100777.88;5006223;28;20033;-89
2022/06/26 06:06:24;;;;;;;10.73;6.57;;;;;;;27.09;42.12;100767.97;5015554;28;20048;-88
2022/06/26 06:08:51;;;;;;;12.52;7.10;;;;;;;27.33;41.67;100765.63;5027810;28;20531;-87
2022/06/26 06:11:19;;;;;;;10.05;6.82;;;;;;;27.46;41.14;100772.56;5013325;28;20041;-87
2022/06/26 06:14:00;;;;;;;17.40;6.28;;;;;;;27.87;40.22;100793.97;5033823;28;20551;-88
2022/06/26 06:16:30;;;;;;;14.07;7.00;;;;;;;28.02;39.94;100784.88;5033799;28;20069;-88
2022/06/26 06:19:12;;;;;;;9.98;6.45;;;;;;;28.15;39.45;100798.16;5014688;28;20539;-87
2022/06/26 06:21:41;;;;;;;9.95;5.95;;;;;;;28.28;39.19;100789.28;5048479;28;20040;-88
2022/06/26 06:24:19;;;;;;;11.65;5.85;;;;;;;28.51;37.97;100792.66;5040434;28;20045;-89
2022/06/26 06:26:50;;;;;;;9.15;5.85;;;;;;;28.67;37.39;100774.94;5018697;28;20048;-88
2022/06/26 06:29:17;;;;;;;8.20;4.65;;;;;;;28.90;36.41;100764.38;5025883;28;20041;-84
2022/06/26 06:31:56;;;;;;;8.25;4.13;;;;;;;29.22;33.64;100770.38;5041970;28;20114;-85
2022/06/26 06:34:23;;;;;;;9.98;5.05;;;;;;;29.29;34.64;100772.84;5037671;28;20123;-85
2022/06/26 06:37:00;;;;;;;8.23;4.85;;;;;;;29.55;33.49;100775.47;5041300;28;20104;-87
2022/06/26 06:39:26;;;;;;;9.45;4.40;;;;;;;29.66;32.95;100764.06;5043575;28;20045;-87
2022/06/26 06:41:52;;;;;;;10.35;5.20;;;;;;;29.70;33.78;100757.97;5008295;28;20350;-84
2022/06/26 06:44:20;;;;;;;9.73;4.65;;;;;;;29.88;33.73;100779.47;5028572;28;20040;-87
2022/06/26 06:46:55;;;;;;;8.85;4.85;;;;;;;29.91;33.40;100769.75;5044115;28;20037;-85
2022/06/26 06:49:24;;;;;;;12.07;5.53;;;;;;;30.00;33.50;100779.94;5026844;28;20055;-86
2022/06/26 06:51:51;;;;;;;13.30;5.60;;;;;;;30.29;33.38;100773.66;5034184;28;20463;-86
2022/06/26 06:54:25;;;;;;;5.65;3.50;;;;;;;30.52;30.90;100779.56;5046049;28;20036;-87
2022/06/26 06:56:52;;;;;;;5.90;3.70;;;;;;;30.58;31.07;100773.66;5071406;28;20078;-84
2022/06/26 06:59:23;;;;;;;6.10;3.70;;;;;;;30.33;31.03;100760.03;5038615;28;20098;-88
2022/06/26 07:01:51;;;;;;;9.48;4.10;;;;;;;30.46;30.64;100759.34;5051628;28;20040;-90
2022/06/26 07:04:18;;;;;;;10.95;4.38;;;;;;;30.53;30.23;100782.00;5027551;28;20048;-86
2022/06/26 07:06:48;;;;;;;10.88;7.00;;;;;;;30.68;30.24;100779.09;5052819;28;20386;-86
2022/06/26 07:09:14;;;;;;;6.35;3.40;;;;;;;30.66;29.55;100769.41;5066867;28;20071;-86
2022/06/26 07:11:42;;;;;;;6.38;3.50;;;;;;;30.69;30.35;100768.81;5035031;28;20126;-84
2022/06/26 07:14:14;;;;;;;8.32;3.50;;;;;;;30.59;30.83;100774.50;5052101;28;20489;-86
2022/06/26 07:16:41;;;;;;;8.82;3.78;;;;;;;30.60;30.10;100771.44;5055568;28;20041;-85
2022/06/26 07:19:08;;;;;;;9.18;3.15;;;;;;;30.44;30.03;100779.06;5031974;28;20044;-86
2022/06/26 07:21:35;;;;;;;5.25;3.28;;;;;;;30.21;30.88;100775.06;5024489;28;20047;-84
2022/06/26 07:24:01;;;;;;;4.00;2.63;;;;;;;30.25;29.62;100767.84;5055152;28;20048;-85
2022/06/26 07:26:30;;;;;;;5.05;2.83;;;;;;;30.51;29.60;100784.28;5046743;28;20036;-86
2022/06/26 07:28:57;;;;;;;4.60;2.67;;;;;;;30.82;28.74;100789.53;5030909;28;20049;-88
2022/06/26 07:31:25;;;;;;;8.07;2.92;;;;;;;30.61;29.24;100775.03;5038155;28;20058;-88
2022/06/26 07:36:36;;;;;;;7.72;3.00;;;;;;;31.12;28.43;100785.59;5054147;28;20047;-84
2022/06/26 07:39:05;;;;;;;6.60;3.00;;;;;;;31.17;27.98;100774.44;5039807;28;20037;-85
2022/06/26 07:41:34;;;;;;;7.57;2.50;;;;;;;31.37;27.72;100758.63;5046841;28;20120;-87
2022/06/26 07:44:00;;;;;;;7.05;2.60;;;;;;;31.40;27.30;100755.25;5069647;28;20115;-88
2022/06/26 07:46:27;;;;;;;5.30;2.88;;;;;;;31.73;26.56;100778.44;5037451;28;20067;-85
2022/06/26 07:48:55;;;;;;;4.07;2.60;;;;;;;31.44;27.94;100771.03;5061225;28;20040;-84
2022/06/26 07:51:25;;;;;;;7.50;2.60;;;;;;;31.51;27.31;100779.03;5075071;28;20036;-86
2022/06/26 07:53:53;;;;;;;4.78;2.70;;;;;;;31.45;27.53;100780.22;5076862;28;20062;-88
2022/06/26 07:56:25;;;;;;;3.55;2.45;;;;;;;31.42;26.81;100780.81;5085490;28;20068;-85
2022/06/26 07:58:56;;;;;;;4.00;2.58;;;;;;;31.19;27.25;100788.84;4991988;28;20560;-86
2022/06/26 08:01:26;;;;;;;6.20;2.70;;;;;;;31.78;27.29;100783.09;4985879;28;20038;-87
2022/06/26 08:03:57;;;;;;;4.32;2.22;;;;;;;32.02;27.53;100781.09;4971719;28;20053;-86
2022/06/26 08:06:29;;;;;;;6.30;2.42;;;;;;;31.87;26.97;100796.03;4995806;28;20042;-87
2022/06/26 08:08:59;;;;;;;3.67;2.30;;;;;;;31.85;27.17;100787.16;4966649;28;20061;-85
2022/06/26 08:11:30;;;;;;;3.53;2.42;;;;;;;31.97;27.38;100792.28;4995659;28;20041;-86
2022/06/26 08:14:08;;;;;;;3.88;2.40;;;;;;;32.02;27.06;100772.75;4991956;28;20050;-87
2022/06/26 08:16:35;;;;;;;3.65;2.20;;;;;;;32.50;26.54;100794.78;4969401;28;20053;-84
2022/06/26 08:19:00;;;;;;;3.80;2.13;;;;;;;32.77;25.62;100773.69;4957211;28;20052;-84
2022/06/26 08:24:12;;;;;;;4.70;2.22;;;;;;;33.47;25.11;100785.69;5000546;28;20085;-85
2022/06/26 08:26:39;;;;;;;3.03;2.00;;;;;;;33.19;25.14;100782.91;4973769;28;20412;-84
2022/06/26 08:29:05;;;;;;;5.90;2.00;;;;;;;33.45;24.46;100790.75;4972730;28;20496;-87
2022/06/26 08:31:31;;;;;;;5.45;1.95;;;;;;;33.22;25.30;100782.28;5071589;28;20040;-84
2022/06/26 08:33:56;;;;;;;3.80;1.73;;;;;;;32.85;25.16;100792.47;5020623;28;20043;-83
2022/06/26 08:36:22;;;;;;;3.25;1.60;;;;;;;31.89;25.66;100773.47;5052243;28;20048;-83
2022/06/26 08:38:49;;;;;;;4.63;1.90;;;;;;;31.95;25.71;100769.50;5054128;28;20123;-86
2022/06/26 08:41:15;;;;;;;2.55;1.65;;;;;;;31.33;26.05;100775.91;5076728;28;20033;-82
2022/06/26 08:43:43;;;;;;;3.55;1.70;;;;;;;31.40;26.34;100805.25;5034038;28;20053;-84
2022/06/26 08:46:09;;;;;;;2.13;1.45;;;;;;;31.40;26.21;100783.91;5026409;28;20377;-84
2022/06/26 08:48:54;;;;;;;3.08;1.70;;;;;;;31.32;26.17;100810.34;5054535;28;20075;-83
2022/06/26 08:51:20;;;;;;;5.10;1.70;;;;;;;30.81;26.87;100808.13;5062523;28;20480;-83
2022/06/26 08:53:52;;;;;;;2.35;1.40;;;;;;;30.61;27.11;100806.38;5034133;28;20048;-84
2022/06/26 08:56:21;;;;;;;3.40;1.70;;;;;;;30.78;27.09;100816.19;5038483;28;20037;-84
2022/06/26 08:58:50;;;;;;;3.30;1.50;;;;;;;30.94;26.25;100786.38;5070014;28;20040;-83
2022/06/26 09:01:30;;;;;;;2.15;1.40;;;;;;;30.63;26.67;100800.53;5029335;28;20048;-85
2022/06/26 09:03:58;;;;;;;2.55;1.35;;;;;;;30.29;27.10;100793.06;5055782;28;20123;-83
2022/06/26 09:06:30;;;;;;;2.65;1.60;;;;;;;30.98;26.83;100806.88;5035993;28;20103;-84
2022/06/26 09:08:56;;;;;;;5.05;1.60;;;;;;;31.51;26.05;100802.06;5053745;28;20045;-85
2022/06/26 09:11:36;;;;;;;2.25;1.63;;;;;;;31.93;25.85;100802.31;5035314;28;20056;-87
2022/06/26 09:14:02;;;;;;;3.25;1.80;;;;;;;32.76;24.02;100820.19;5045928;28;20202;-83
2022/06/26 09:16:39;;;;;;;2.00;1.45;;;;;;;33.16;23.71;100811.41;5029762;28;20090;-84
2022/06/26 09:19:09;;;;;;;4.25;1.40;;;;;;;33.90;22.63;100824.31;5055643;28;20047;-84
2022/06/26 09:21:34;;;;;;;2.22;1.38;;;;;;;33.41;23.25;100802.50;5065714;28;20044;-82
2022/06/26 09:24:01;;;;;;;3.05;1.20;;;;;;;33.89;22.43;100795.63;5068118;28;20040;-82
2022/06/26 09:26:27;;;;;;;3.47;1.73;;;;;;;34.19;22.90;100805.25;5039735;28;20496;-83
2022/06/26 09:29:22;;;;;;;2.55;1.60;;;;;;;34.97;21.97;100818.88;5048109;28;20060;-83
2022/06/26 09:31:47;;;;;;;4.25;1.35;;;;;;;35.78;20.41;100809.28;5063553;28;20036;-84
2022/06/26 09:34:27;;;;;;;6.50;1.55;;;;;;;36.05;19.95;100810.09;5045447;28;20047;-80
2022/06/26 09:37:04;;;;;;;2.55;1.55;;;;;;;36.48;19.57;100809.25;5052200;28;20054;-82
2022/06/26 09:39:32;;;;;;;2.67;1.40;;;;;;;36.24;19.86;100812.59;5032831;28;20138;-87
2022/06/26 09:42:17;;;;;;;4.45;1.88;;;;;;;37.09;19.14;100804.34;5076645;28;20033;-84
2022/06/26 09:44:51;;;;;;;4.25;1.40;;;;;;;35.87;20.11;100804.53;5080839;28;20112;-83
2022/06/26 09:47:38;;;;;;;2.83;1.10;;;;;;;36.18;19.78;100805.53;5052810;28;20032;-84
2022/06/26 09:50:07;;;;;;;2.60;1.50;;;;;;;36.55;19.48;100795.59;5052886;28;20401;-84
2022/06/26 09:52:36;;;;;;;3.53;1.30;;;;;;;35.27;20.09;100799.63;5054657;28;20123;-82
2022/06/26 09:55:03;;;;;;;4.03;1.48;;;;;;;33.73;22.33;100819.41;5031230;28;20091;-81
2022/06/26 09:57:32;;;;;;;2.38;1.60;;;;;;;33.62;23.06;100813.22;5052778;28;20105;-80
2022/06/26 10:00:06;;;;;;;2.60;1.45;;;;;;;32.99;23.96;100798.03;5036977;28;20032;-84
2022/06/26 10:08:06;;;;;;;3.63;1.80;;;;;;;32.30;26.13;100807.03;5034125;28;20048;-84
2022/06/26 10:10:33;;;;;;;4.07;1.70;;;;;;;31.74;27.12;100813.44;5037072;28;20033;-85
2022/06/26 10:13:06;;;;;;;8.80;1.70;;;;;;;31.25;27.11;100814.59;5044711;28;20416;-85
2022/06/26 10:15:49;;;;;;;1.98;1.20;;;;;;;30.56;28.16;100817.50;5065022;28;20367;-86
2022/06/26 10:18:24;;;;;;;2.72;1.58;;;;;;;31.53;27.12;100821.22;5066981;28;20024;-82
2022/06/26 10:20:50;;;;;;;;;;;;;;;30.87;29.29;100820.03;5053323;28;20082;-84
2022/06/26 10:23:39;;;;;;;2.78;1.70;;;;;;;30.22;32.53;100825.81;5049320;28;19913;-84
2022/06/26 10:26:23;;;;;;;3.95;1.70;;;;;;;29.65;33.88;100831.66;5031899;28;20412;-85
2022/06/26 10:29:12;;;;;;;4.53;1.92;;;;;;;28.95;35.45;100820.53;5065407;28;20513;-83
2022/06/26 10:31:48;;;;;;;2.58;1.58;;;;;;;28.61;34.56;100810.09;5045040;28;20113;-85
2022/06/26 10:34:22;;;;;;;2.40;1.55;;;;;;;28.03;35.24;100831.59;5050953;28;20071;-83
2022/06/26 10:37:10;;;;;;;3.55;1.65;;;;;;;28.02;34.74;100818.03;5037670;28;20530;-85
2022/06/26 10:39:45;;;;;;;2.50;1.67;;;;;;;28.22;34.11;100818.06;5035246;28;20033;-84
2022/06/26 10:45:09;;;;;;;2.53;1.40;;;;;;;30.99;29.65;100817.66;5070767;28;20056;-84
2022/06/26 10:47:45;;;;;;;1.65;1.17;;;;;;;30.72;29.55;100812.66;5048108;28;20052;-85
2022/06/26 10:50:32;;;;;;;4.30;1.30;;;;;;;30.33;29.00;100821.88;5058610;28;20044;-82
2022/06/26 10:53:17;;;;;;;2.60;1.40;;;;;;;29.73;29.23;100821.13;5059683;28;20131;-83
2022/06/26 10:56:02;;;;;;;2.40;1.30;;;;;;;29.41;29.35;100816.84;5009023;28;20041;-81
2022/06/26 10:58:45;;;;;;;2.22;1.65;;;;;;;29.04;30.88;100806.94;5049814;28;20039;-82
2022/06/26 11:01:14;;;;;;;4.43;1.33;;;;;;;28.52;32.42;100799.84;5019605;28;20049;-81
2022/06/26 11:03:41;;;;;;;3.90;1.60;;;;;;;28.66;32.75;100811.16;5028205;28;20087;-81
2022/06/26 11:06:08;;;;;;;3.25;1.30;;;;;;;28.55;33.62;100811.19;5019099;28;20435;-82
2022/06/26 11:08:42;;;;;;;2.30;1.38;;;;;;;28.60;33.92;100813.13;5015378;28;20087;-82
2022/06/26 11:11:15;;;;;;;1.53;1.30;;;;;;;28.29;34.46;100824.16;5027155;28;20507;-81
2022/06/26 11:14:06;;;;;;;3.60;1.63;;;;;;;28.30;34.65;100806.44;5051821;28;20267;-82
2022/06/26 11:16:41;;;;;;;2.83;1.70;;;;;;;28.08;35.48;100805.88;5019009;28;20032;-82
2022/06/26 11:19:19;;;;;;;2.30;1.60;;;;;;;28.01;35.15;100794.28;5026407;28;20437;-81
2022/06/26 11:21:45;;;;;;;2.63;1.58;;;;;;;28.69;34.26;100803.16;4998557;28;20039;-81
2022/06/26 11:24:10;;;;;;;2.08;1.40;;;;;;;29.16;32.31;100804.72;5015257;28;20041;-81
2022/06/26 11:26:39;;;;;;;1.90;1.40;;;;;;;29.28;31.98;100804.41;5011459;28;20037;-83
2022/06/26 11:29:05;;;;;;;1.90;1.40;;;;;;;28.75;33.05;100804.81;4998876;28;20118;-80
2022/06/26 11:31:31;;;;;;;2.35;1.55;;;;;;;28.61;33.73;100812.00;5026240;28;20549;-80
2022/06/26 11:34:13;;;;;;;3.38;1.52;;;;;;;29.00;32.74;100809.44;4998478;28;20033;-82
2022/06/26 11:36:55;;;;;;;2.97;1.60;;;;;;;28.79;33.19;100816.13;4994636;28;20064;-82
2022/06/26 11:39:25;;;;;;;8.35;1.50;;;;;;;29.11;32.96;100812.22;4998657;28;20468;-80
2022/06/26 11:41:50;;;;;;;2.83;1.40;;;;;;;29.19;32.70;100825.47;5029126;28;20033;-82
2022/06/26 11:44:16;;;;;;;3.53;1.50;;;;;;;28.70;33.15;100813.09;5027958;28;20136;-80
2022/06/26 11:46:42;;;;;;;2.15;1.50;;;;;;;28.87;33.00;100828.56;5011092;28;20489;-82
2022/06/26 11:49:11;;;;;;;2.50;1.60;;;;;;;28.95;32.14;100828.81;5018550;28;20033;-80
2022/06/26 11:51:37;;;;;;;5.40;1.70;;;;;;;28.56;33.00;100823.06;5035245;28;20033;-79
2022/06/26 11:54:03;;;;;;;3.50;2.15;;;;;;;28.82;33.38;100827.47;5059894;28;20036;-80